createdAt,value
2018-03-31T00:00:31.256Z,98731.31
2018-03-31T00:02:58.153Z,98733.34
2018-03-31T00:05:25.083Z,98734.26
2018-03-31T00:07:52.006Z,98739.00
2018-03-31T00:10:18.929Z,98740.98
2018-03-31T00:12:45.827Z,98737.24
2018-03-31T00:15:12.742Z,98740.41
2018-03-31T00:17:39.670Z,98745.69
2018-03-31T00:20:06.599Z,98740.56
2018-03-31T00:22:33.547Z,98749.44
2018-03-31T00:25:00.453Z,98748.90
2018-03-31T00:27:27.354Z,98740.80
2018-03-31T00:29:54.273Z,98732.60
2018-03-31T00:32:21.173Z,98729.90
2018-03-31T00:34:48.093Z,98723.45
2018-03-31T00:37:14.997Z,98716.64
2018-03-31T00:39:41.897Z,98718.15
2018-03-31T00:42:08.817Z,98720.97
2018-03-31T00:44:35.713Z,98718.94
2018-03-31T00:47:02.793Z,98718.02
2018-03-31T00:49:29.693Z,98719.00
2018-03-31T00:51:56.605Z,98719.75
2018-03-31T00:54:23.525Z,98725.03
2018-03-31T00:56:50.429Z,98727.56
2018-03-31T00:59:17.373Z,98731.69
2018-03-31T01:01:44.277Z,98727.08
2018-03-31T01:04:11.197Z,98733.56
2018-03-31T01:06:38.121Z,98728.31
2018-03-31T01:09:05.028Z,98727.59
2018-03-31T01:11:32.272Z,98730.30
2018-03-31T01:13:59.192Z,98720.14
2018-03-31T01:16:26.101Z,98720.60
2018-03-31T01:18:53.021Z,98717.73
2018-03-31T01:21:19.933Z,98716.01
2018-03-31T01:23:47.061Z,98719.87
2018-03-31T01:26:13.976Z,98721.76
2018-03-31T01:28:40.881Z,98731.48
2018-03-31T01:31:07.798Z,98744.95
2018-03-31T01:33:34.698Z,98741.02
2018-03-31T01:36:01.971Z,98749.13
2018-03-31T01:38:28.886Z,98742.44
2018-03-31T01:40:55.785Z,98742.36
2018-03-31T01:43:22.705Z,98757.02
2018-03-31T01:45:49.605Z,98767.03
2018-03-31T01:48:16.739Z,98758.95
2018-03-31T01:50:43.646Z,98769.66
2018-03-31T01:53:10.549Z,98759.58
2018-03-31T01:55:37.480Z,98753.08
2018-03-31T01:58:04.377Z,98753.86
2018-03-31T02:00:31.317Z,98756.19
2018-03-31T02:02:58.226Z,98755.22
2018-03-31T02:05:25.129Z,98747.28
2018-03-31T02:07:52.050Z,98740.42
2018-03-31T02:10:18.948Z,98733.51
2018-03-31T02:12:46.064Z,98721.58
2018-03-31T02:15:12.973Z,98711.43
2018-03-31T02:17:39.878Z,98713.72
2018-03-31T02:20:06.812Z,98715.52
2018-03-31T02:22:33.710Z,98724.42
2018-03-31T02:25:00.997Z,98728.31
2018-03-31T02:27:27.913Z,98740.27
2018-03-31T02:29:54.809Z,98746.83
2018-03-31T02:32:21.750Z,98741.87
2018-03-31T02:34:48.657Z,98741.50
2018-03-31T02:37:15.594Z,98737.97
2018-03-31T02:39:42.519Z,98735.96
2018-03-31T02:42:09.457Z,98736.04
2018-03-31T02:44:36.381Z,98734.72
2018-03-31T02:47:03.286Z,98735.15
2018-03-31T02:49:30.354Z,98740.72
2018-03-31T02:51:57.255Z,98741.44
2018-03-31T02:54:24.168Z,98727.58
2018-03-31T02:56:51.101Z,98729.91
2018-03-31T02:59:18.014Z,98734.85
2018-03-31T03:01:44.947Z,98729.02
2018-03-31T03:04:11.856Z,98728.83
2018-03-31T03:06:38.781Z,98729.49
2018-03-31T03:09:05.725Z,98730.97
2018-03-31T03:11:32.628Z,98730.66
2018-03-31T03:13:59.573Z,98726.95
2018-03-31T03:16:26.478Z,98722.23
2018-03-31T03:18:53.377Z,98728.70
2018-03-31T03:21:20.336Z,98723.17
2018-03-31T03:23:47.236Z,98726.53
2018-03-31T03:26:14.321Z,98726.66
2018-03-31T03:28:41.218Z,98729.25
2018-03-31T03:31:08.115Z,98730.18
2018-03-31T03:33:35.037Z,98732.61
2018-03-31T03:36:01.941Z,98730.69
2018-03-31T03:38:28.869Z,98726.88
2018-03-31T03:40:55.774Z,98719.95
2018-03-31T03:43:22.700Z,98720.48
2018-03-31T03:45:49.626Z,98713.26
2018-03-31T03:48:16.571Z,98722.17
2018-03-31T03:50:43.809Z,98721.28
2018-03-31T03:53:10.713Z,98731.08
2018-03-31T03:55:37.621Z,98736.86
2018-03-31T03:58:04.549Z,98737.33
2018-03-31T04:00:31.452Z,98741.22
2018-03-31T04:02:58.456Z,98740.43
2018-03-31T04:05:25.357Z,98737.05
2018-03-31T04:07:52.255Z,98742.45
2018-03-31T04:10:19.185Z,98735.02
2018-03-31T04:12:46.090Z,98744.88
2018-03-31T04:15:13.031Z,98745.30
2018-03-31T04:17:39.961Z,98742.13
2018-03-31T04:20:06.861Z,98745.32
2018-03-31T04:22:33.787Z,98741.45
2018-03-31T04:25:00.701Z,98745.83
2018-03-31T04:27:27.634Z,98742.16
2018-03-31T04:29:54.533Z,98743.37
2018-03-31T04:32:21.441Z,98740.02
2018-03-31T04:34:48.369Z,98738.13
2018-03-31T04:37:15.289Z,98745.36
2018-03-31T04:39:42.645Z,98750.09
2018-03-31T04:42:09.550Z,98753.13
2018-03-31T04:44:36.448Z,98756.77
2018-03-31T04:47:03.417Z,98752.77
2018-03-31T04:49:30.328Z,98750.59
2018-03-31T04:51:57.397Z,98752.64
2018-03-31T04:54:24.297Z,98755.62
2018-03-31T04:56:51.208Z,98753.08
2018-03-31T04:59:18.127Z,98752.34
2018-03-31T05:01:45.041Z,98750.80
2018-03-31T05:04:11.985Z,98756.81
2018-03-31T05:06:38.892Z,98758.77
2018-03-31T05:09:05.818Z,98767.56
2018-03-31T05:11:32.762Z,98766.11
2018-03-31T05:14:00.026Z,98767.54
2018-03-31T05:16:27.112Z,98770.19
2018-03-31T05:18:54.013Z,98762.32
2018-03-31T05:21:20.923Z,98766.52
2018-03-31T05:23:47.849Z,98758.02
2018-03-31T05:26:15.034Z,98766.52
2018-03-31T05:28:41.998Z,98764.50
2018-03-31T05:31:08.932Z,98764.13
2018-03-31T05:33:35.880Z,98768.48
2018-03-31T05:36:02.813Z,98767.66
2018-03-31T05:38:29.733Z,98769.59
2018-03-31T05:40:56.641Z,98768.53
2018-03-31T05:43:23.545Z,98774.63
2018-03-31T05:45:50.481Z,98772.28
2018-03-31T05:48:17.381Z,98770.95
2018-03-31T05:50:44.310Z,98774.76
2018-03-31T05:53:11.242Z,98776.19
2018-03-31T05:55:38.149Z,98768.36
2018-03-31T05:58:05.056Z,98767.69
2018-03-31T06:00:31.989Z,98770.64
2018-03-31T06:02:58.902Z,98773.59
2018-03-31T06:05:25.809Z,98771.05
2018-03-31T06:07:52.737Z,98769.80
2018-03-31T06:10:19.647Z,98780.64
2018-03-31T06:12:46.558Z,98773.77
2018-03-31T06:15:13.529Z,98773.73
2018-03-31T06:17:40.433Z,98775.20
2018-03-31T06:20:07.337Z,98783.55
2018-03-31T06:22:34.274Z,98786.94
2018-03-31T06:25:01.197Z,98793.27
2018-03-31T06:27:28.109Z,98788.91
2018-03-31T06:29:55.050Z,98793.24
2018-03-31T06:32:21.957Z,98795.50
2018-03-31T06:34:48.862Z,98793.29
2018-03-31T06:37:16.005Z,98797.19
2018-03-31T06:39:42.917Z,98794.45
2018-03-31T06:42:09.824Z,98790.09
2018-03-31T06:44:36.770Z,98787.08
2018-03-31T06:47:03.697Z,98788.42
2018-03-31T06:49:30.635Z,98791.59
2018-03-31T06:51:57.903Z,98788.41
2018-03-31T06:54:24.820Z,98795.50
2018-03-31T06:56:51.733Z,98785.27
2018-03-31T06:59:18.665Z,98792.95
2018-03-31T07:01:45.571Z,98794.21
2018-03-31T07:04:12.507Z,98794.52
2018-03-31T07:06:39.589Z,98795.31
2018-03-31T07:09:06.509Z,98793.86
2018-03-31T07:11:33.415Z,98797.64
2018-03-31T07:14:00.668Z,98793.61
2018-03-31T07:16:27.573Z,98790.73
2018-03-31T07:18:54.494Z,98788.13
2018-03-31T07:21:21.858Z,98786.05
2018-03-31T07:23:48.765Z,98789.75
2018-03-31T07:26:15.670Z,98786.97
2018-03-31T07:28:42.721Z,98790.55
2018-03-31T07:31:09.630Z,98783.88
2018-03-31T07:33:36.531Z,98784.86
2018-03-31T07:36:03.597Z,98786.94
2018-03-31T07:38:30.542Z,98790.25
2018-03-31T07:40:57.470Z,98779.56
2018-03-31T07:43:24.886Z,98781.68
2018-03-31T07:45:51.781Z,98785.65
2018-03-31T07:48:18.683Z,98778.14
2018-03-31T07:50:45.613Z,98785.62
2018-03-31T07:53:12.533Z,98782.58
2018-03-31T07:55:39.446Z,98779.66
2018-03-31T07:58:06.526Z,98788.89
2018-03-31T08:00:33.431Z,98781.50
2018-03-31T08:03:00.339Z,98782.06
2018-03-31T08:05:27.293Z,98787.06
2018-03-31T08:07:54.210Z,98785.38
2018-03-31T08:10:21.118Z,98778.09
2018-03-31T08:12:48.063Z,98783.46
2018-03-31T08:15:14.960Z,98787.09
2018-03-31T08:17:41.869Z,98784.16
2018-03-31T08:20:08.793Z,98785.89
2018-03-31T08:22:35.694Z,98783.47
2018-03-31T08:25:03.050Z,98781.69
2018-03-31T08:27:29.953Z,98781.75
2018-03-31T08:29:56.865Z,98781.59
2018-03-31T08:32:23.820Z,98773.78
2018-03-31T08:34:50.725Z,98772.63
2018-03-31T08:37:17.629Z,98766.22
2018-03-31T08:39:44.572Z,98765.03
2018-03-31T08:42:11.477Z,98757.52
2018-03-31T08:44:38.617Z,98758.75
2018-03-31T08:47:05.604Z,98750.87
2018-03-31T08:49:32.597Z,98753.80
2018-03-31T08:51:59.541Z,98754.22
2018-03-31T08:54:26.452Z,98755.91
2018-03-31T08:56:53.506Z,98759.37
2018-03-31T08:59:20.411Z,98759.66
2018-03-31T09:01:47.339Z,98767.47
2018-03-31T09:04:14.266Z,98765.66
2018-03-31T09:06:41.178Z,98765.95
2018-03-31T09:09:08.149Z,98762.70
2018-03-31T09:11:35.065Z,98764.18
2018-03-31T09:14:01.968Z,98766.06
2018-03-31T09:16:28.948Z,98774.92
2018-03-31T09:18:55.861Z,98778.22
2018-03-31T09:21:22.826Z,98782.44
2018-03-31T09:23:49.748Z,98775.84
2018-03-31T09:26:16.653Z,98777.25
2018-03-31T09:28:43.588Z,98775.70
2018-03-31T09:31:10.494Z,98781.84
2018-03-31T09:33:37.529Z,98778.34
2018-03-31T09:36:04.434Z,98776.73
2018-03-31T09:38:31.337Z,98776.80
2018-03-31T09:40:58.266Z,98776.74
2018-03-31T09:43:25.173Z,98775.36
2018-03-31T09:45:52.385Z,98781.64
2018-03-31T09:48:19.285Z,98777.30
2018-03-31T09:50:46.209Z,98773.89
2018-03-31T09:53:13.138Z,98775.72
2018-03-31T09:55:40.049Z,98771.04
2018-03-31T09:58:06.994Z,98772.52
2018-03-31T10:00:35.841Z,98775.20
2018-03-31T10:03:02.754Z,98770.74
2018-03-31T10:05:29.678Z,98770.66
2018-03-31T10:07:56.589Z,98771.20
2018-03-31T10:10:23.535Z,98773.52
2018-03-31T10:12:50.532Z,98764.72
2018-03-31T10:15:17.438Z,98759.56
2018-03-31T10:17:44.395Z,98761.41
2018-03-31T10:20:11.322Z,98757.30
2018-03-31T10:22:38.313Z,98758.20
2018-03-31T10:25:05.192Z,98761.53
2018-03-31T10:27:32.117Z,98757.48
2018-03-31T10:29:59.058Z,98759.36
2018-03-31T10:32:26.072Z,98754.48
2018-03-31T10:34:53.021Z,98754.35
2018-03-31T10:37:19.925Z,98754.38
2018-03-31T10:39:46.826Z,98756.51
2018-03-31T10:42:13.755Z,98754.42
2018-03-31T10:44:40.678Z,98755.69
2018-03-31T10:47:07.634Z,98753.47
2018-03-31T10:49:34.537Z,98746.72
2018-03-31T10:52:01.596Z,98744.56
2018-03-31T10:54:28.521Z,98748.72
2018-03-31T10:56:55.426Z,98746.20
2018-03-31T10:59:22.369Z,98740.00
2018-03-31T11:01:49.276Z,98747.77
2018-03-31T11:04:16.177Z,98753.95
2018-03-31T11:06:43.109Z,98740.77
2018-03-31T11:09:10.015Z,98741.92
2018-03-31T11:11:37.193Z,98745.13
2018-03-31T11:14:04.105Z,98742.96
2018-03-31T11:16:31.013Z,98744.07
2018-03-31T11:18:57.959Z,98743.20
2018-03-31T11:21:24.882Z,98736.93
2018-03-31T11:23:52.081Z,98740.14
2018-03-31T11:26:18.986Z,98738.38
2018-03-31T11:28:45.894Z,98741.17
2018-03-31T11:31:12.829Z,98736.63
2018-03-31T11:33:39.747Z,98731.00
2018-03-31T11:36:06.823Z,98733.48
2018-03-31T11:38:33.722Z,98726.06
2018-03-31T11:41:00.677Z,98728.22
2018-03-31T11:43:27.603Z,98723.13
2018-03-31T11:45:54.553Z,98716.23
2018-03-31T11:48:21.886Z,98716.30
2018-03-31T11:50:48.789Z,98714.45
2018-03-31T11:53:15.697Z,98725.44
2018-03-31T11:55:42.639Z,98724.27
2018-03-31T11:58:09.545Z,98720.64
2018-03-31T12:00:36.989Z,98717.81
2018-03-31T12:03:03.918Z,98724.22
2018-03-31T12:05:30.823Z,98712.00
2018-03-31T12:07:57.746Z,98718.72
2018-03-31T12:10:24.662Z,98722.79
2018-03-31T12:12:51.842Z,98712.41
2018-03-31T12:15:18.749Z,98717.06
2018-03-31T12:17:45.663Z,98710.95
2018-03-31T12:20:12.581Z,98713.14
2018-03-31T12:22:39.482Z,98718.36
2018-03-31T12:25:06.839Z,98709.56
2018-03-31T12:27:33.742Z,98716.98
2018-03-31T12:30:00.645Z,98717.17
2018-03-31T12:32:27.580Z,98714.63
2018-03-31T12:34:54.501Z,98714.18
2018-03-31T12:37:21.762Z,98705.33
2018-03-31T12:39:48.670Z,98705.08
2018-03-31T12:42:15.577Z,98691.94
2018-03-31T12:44:42.527Z,98694.42
2018-03-31T12:47:09.442Z,98697.32
2018-03-31T12:49:36.522Z,98696.05
2018-03-31T12:52:03.436Z,98690.58
2018-03-31T12:54:30.342Z,98688.89
2018-03-31T12:56:57.265Z,98683.41
2018-03-31T12:59:24.185Z,98682.69
2018-03-31T13:01:51.123Z,98678.59
2018-03-31T13:04:18.029Z,98683.95
2018-03-31T13:06:44.941Z,98681.76
2018-03-31T13:09:11.869Z,98679.80
2018-03-31T13:11:38.774Z,98682.53
2018-03-31T13:14:05.946Z,98681.92
2018-03-31T13:16:32.869Z,98680.52
2018-03-31T13:18:59.813Z,98675.70
2018-03-31T13:21:26.741Z,98678.42
2018-03-31T13:23:53.646Z,98683.70
2018-03-31T13:26:20.578Z,98675.61
2018-03-31T13:28:47.499Z,98676.80
2018-03-31T13:31:14.425Z,98670.36
2018-03-31T13:33:41.357Z,98673.91
2018-03-31T13:36:08.265Z,98671.89
2018-03-31T13:38:35.384Z,98674.39
2018-03-31T13:41:02.313Z,98673.19
2018-03-31T13:43:29.228Z,98674.98
2018-03-31T13:45:56.176Z,98670.61
2018-03-31T13:48:23.081Z,98669.12
2018-03-31T13:50:50.034Z,98665.24
2018-03-31T13:53:16.946Z,98655.54
2018-03-31T13:55:43.877Z,98659.17
2018-03-31T13:58:10.825Z,98662.33
2018-03-31T14:00:37.730Z,98660.97
2018-03-31T14:03:04.845Z,98664.11
2018-03-31T14:05:31.749Z,98668.91
2018-03-31T14:07:58.653Z,98668.23
2018-03-31T14:10:25.597Z,98667.78
2018-03-31T14:12:52.503Z,98666.32
2018-03-31T14:15:19.633Z,98665.67
2018-03-31T14:17:46.550Z,98666.33
2018-03-31T14:20:13.465Z,98671.30
2018-03-31T14:22:40.419Z,98671.77
2018-03-31T14:25:07.326Z,98667.18
2018-03-31T14:27:34.530Z,98665.88
2018-03-31T14:30:01.454Z,98667.58
2018-03-31T14:32:28.361Z,98668.98
2018-03-31T14:34:55.285Z,98672.70
2018-03-31T14:37:22.222Z,98670.62
2018-03-31T14:39:49.508Z,98674.16
2018-03-31T14:42:16.412Z,98668.53
2018-03-31T14:44:43.328Z,98665.56
2018-03-31T14:47:10.259Z,98667.16
2018-03-31T14:49:37.165Z,98664.79
2018-03-31T14:52:04.188Z,98664.52
2018-03-31T14:54:31.135Z,98659.28
2018-03-31T14:56:58.054Z,98663.77
2018-03-31T14:59:24.977Z,98661.88
2018-03-31T15:01:51.885Z,98663.97
2018-03-31T15:04:18.833Z,98661.72
2018-03-31T15:06:46.159Z,98661.63
2018-03-31T15:09:13.076Z,98661.74
2018-03-31T15:11:40.007Z,98666.89
2018-03-31T15:14:06.906Z,98662.92
2018-03-31T15:16:34.917Z,98663.48
2018-03-31T15:19:01.823Z,98662.56
2018-03-31T15:21:28.745Z,98672.38
2018-03-31T15:23:55.680Z,98667.24
2018-03-31T15:26:22.589Z,98667.14
2018-03-31T15:28:49.525Z,98663.25
2018-03-31T15:31:16.437Z,98663.73
2018-03-31T15:33:43.354Z,98669.73
2018-03-31T15:36:10.277Z,98669.53
2018-03-31T15:38:37.185Z,98665.86
2018-03-31T15:41:04.294Z,98669.95
2018-03-31T15:43:31.197Z,98671.37
2018-03-31T15:45:58.130Z,98673.37
2018-03-31T15:48:25.057Z,98673.48
2018-03-31T15:50:51.972Z,98679.27
2018-03-31T15:53:18.901Z,98681.63
2018-03-31T15:55:45.805Z,98691.13
2018-03-31T15:58:12.713Z,98684.48
2018-03-31T16:00:39.721Z,98683.03
2018-03-31T16:03:06.648Z,98690.75
2018-03-31T16:05:33.589Z,98690.16
2018-03-31T16:08:00.490Z,98695.76
2018-03-31T16:10:27.393Z,98691.82
2018-03-31T16:12:54.347Z,98689.75
2018-03-31T16:15:21.254Z,98701.06
2018-03-31T16:17:48.241Z,98695.30
2018-03-31T16:20:15.154Z,98703.16
2018-03-31T16:22:42.061Z,98698.61
2018-03-31T16:25:08.997Z,98703.95
2018-03-31T16:27:35.934Z,98702.45
2018-03-31T16:30:03.142Z,98706.52
2018-03-31T16:32:30.054Z,98700.23
2018-03-31T16:34:56.957Z,98701.88
2018-03-31T16:37:23.901Z,98705.56
2018-03-31T16:39:50.806Z,98705.17
2018-03-31T16:42:17.913Z,98696.56
2018-03-31T16:44:44.838Z,98701.48
2018-03-31T16:47:11.742Z,98706.43
2018-03-31T16:49:38.671Z,98705.24
2018-03-31T16:52:05.570Z,98711.08
2018-03-31T16:54:32.805Z,98713.34
2018-03-31T16:56:59.713Z,98713.70
2018-03-31T16:59:26.630Z,98719.46
2018-03-31T17:01:53.550Z,98713.86
2018-03-31T17:04:20.457Z,98719.41
2018-03-31T17:06:47.599Z,98724.30
2018-03-31T17:09:14.506Z,98723.06
2018-03-31T17:11:41.415Z,98729.80
2018-03-31T17:14:08.342Z,98728.54
2018-03-31T17:16:35.261Z,98732.18
2018-03-31T17:19:02.408Z,98732.42
2018-03-31T17:21:29.328Z,98733.96
2018-03-31T17:23:56.236Z,98738.54
2018-03-31T17:26:23.165Z,98738.74
2018-03-31T17:28:50.085Z,98743.46
2018-03-31T17:31:17.170Z,98746.78
2018-03-31T17:33:44.097Z,98743.33
2018-03-31T17:36:11.002Z,98747.78
2018-03-31T17:38:37.925Z,98747.41
2018-03-31T17:41:04.833Z,98751.16
2018-03-31T17:43:31.953Z,98752.43
2018-03-31T17:45:58.854Z,98748.09
2018-03-31T17:48:25.769Z,98748.36
2018-03-31T17:50:52.744Z,98757.20
2018-03-31T17:53:19.646Z,98756.80
2018-03-31T17:55:46.588Z,98757.05
2018-03-31T17:58:13.517Z,98763.67
2018-03-31T18:00:40.442Z,98766.38
2018-03-31T18:03:07.408Z,98768.57
2018-03-31T18:05:34.316Z,98773.58
2018-03-31T18:08:01.259Z,98773.84
2018-03-31T18:10:28.165Z,98777.25
2018-03-31T18:12:55.098Z,98774.32
2018-03-31T18:15:22.056Z,98785.16
2018-03-31T18:17:49.011Z,98781.31
2018-03-31T18:20:16.090Z,98789.97
2018-03-31T18:22:43.070Z,98784.64
2018-03-31T18:25:09.970Z,98791.94
2018-03-31T18:27:36.894Z,98799.13
2018-03-31T18:30:03.797Z,98803.77
2018-03-31T18:32:31.262Z,98802.19
2018-03-31T18:34:58.295Z,98801.92
2018-03-31T18:37:25.197Z,98805.86
2018-03-31T18:39:52.125Z,98811.87
2018-03-31T18:42:19.044Z,98806.86
2018-03-31T18:44:46.231Z,98805.02
2018-03-31T18:47:13.121Z,98812.03
2018-03-31T18:49:40.042Z,98811.40
2018-03-31T18:52:06.974Z,98824.14
2018-03-31T18:54:33.900Z,98826.66
2018-03-31T18:57:01.109Z,98830.88
2018-03-31T18:59:28.016Z,98835.70
2018-03-31T19:01:54.921Z,98832.02
2018-03-31T19:04:21.850Z,98842.99
2018-03-31T19:06:48.773Z,98841.79
2018-03-31T19:09:15.718Z,98852.72
2018-03-31T19:11:42.626Z,98853.75
2018-03-31T19:14:09.529Z,98854.09
2018-03-31T19:16:42.110Z,98856.20
2018-03-31T19:19:09.043Z,98860.08
2018-03-31T19:21:35.978Z,98856.16
2018-03-31T19:24:02.879Z,98859.39
2018-03-31T19:26:29.796Z,98856.97
2018-03-31T19:28:56.729Z,98857.64
2018-03-31T19:31:23.638Z,98862.11
2018-03-31T19:33:50.578Z,98864.61
2018-03-31T19:36:17.518Z,98868.40
2018-03-31T19:38:44.434Z,98873.05
2018-03-31T19:41:11.369Z,98877.31
2018-03-31T19:43:38.308Z,98882.59
2018-03-31T19:46:05.522Z,98888.56
2018-03-31T19:48:32.430Z,98888.34
2018-03-31T19:50:59.358Z,98885.20
2018-03-31T19:53:26.303Z,98891.16
2018-03-31T19:55:53.233Z,98891.16
2018-03-31T19:58:20.562Z,98892.90
2018-03-31T20:00:47.482Z,98890.59
2018-03-31T20:03:14.407Z,98902.11
2018-03-31T20:05:41.348Z,98898.86
2018-03-31T20:08:08.253Z,98903.45
2018-03-31T20:10:35.190Z,98908.22
2018-03-31T20:13:02.098Z,98913.89
2018-03-31T20:15:29.030Z,98923.43
2018-03-31T20:17:55.977Z,98915.66
2018-03-31T20:20:22.901Z,98915.88
2018-03-31T20:22:49.830Z,98920.89
2018-03-31T20:25:16.754Z,98923.27
2018-03-31T20:27:43.671Z,98930.69
2018-03-31T20:30:10.618Z,98931.86
2018-03-31T20:32:37.546Z,98935.82
2018-03-31T20:35:04.490Z,98936.86
2018-03-31T20:37:31.397Z,98950.94
2018-03-31T20:39:58.297Z,98942.56
2018-03-31T20:42:25.230Z,98945.89
2018-03-31T20:44:52.141Z,98949.97
2018-03-31T20:47:19.517Z,98961.76
2018-03-31T20:49:46.430Z,98958.33
2018-03-31T20:52:13.385Z,98960.50
2018-03-31T20:54:40.345Z,98956.48
2018-03-31T20:57:07.250Z,98957.84
2018-03-31T20:59:34.177Z,98964.34
2018-03-31T21:02:01.116Z,98966.69
2018-03-31T21:04:28.030Z,98960.39
2018-03-31T21:06:54.973Z,98961.19
2018-03-31T21:09:21.878Z,98963.72
2018-03-31T21:11:48.839Z,98966.38
2018-03-31T21:14:15.747Z,98963.99
2018-03-31T21:16:42.645Z,98959.77
2018-03-31T21:19:09.582Z,98966.42
2018-03-31T21:21:36.498Z,98967.04
2018-03-31T21:24:03.581Z,98959.21
2018-03-31T21:26:30.489Z,98963.64
2018-03-31T21:28:57.397Z,98959.23
2018-03-31T21:31:24.325Z,98964.64
2018-03-31T21:33:51.229Z,98970.64
2018-03-31T21:36:18.566Z,98965.80
2018-03-31T21:38:45.474Z,98965.30
2018-03-31T21:41:12.372Z,98970.60
2018-03-31T21:43:39.298Z,98976.27
2018-03-31T21:46:06.207Z,98979.78
2018-03-31T21:48:33.466Z,98982.86
2018-03-31T21:51:00.380Z,98984.79
2018-03-31T21:53:27.331Z,98987.37
2018-03-31T21:55:54.278Z,98985.55
2018-03-31T21:58:21.190Z,98995.47
2018-03-31T22:00:48.151Z,99000.38
2018-03-31T22:03:15.049Z,98995.25
2018-03-31T22:05:41.950Z,98999.16
2018-03-31T22:08:08.886Z,99001.78
2018-03-31T22:10:35.793Z,98999.67
2018-03-31T22:13:08.672Z,99008.55
2018-03-31T22:15:41.117Z,99011.88
2018-03-31T22:18:08.038Z,99024.28
2018-03-31T22:20:34.970Z,99020.13
2018-03-31T22:23:01.993Z,99023.55
2018-03-31T22:25:28.945Z,99019.94
2018-03-31T22:27:55.894Z,99023.13
2018-03-31T22:30:23.821Z,99015.80
2018-03-31T22:32:50.725Z,99020.42
2018-03-31T22:35:17.654Z,99018.84
2018-03-31T22:37:44.633Z,99017.77
2018-03-31T22:40:11.541Z,99018.66
2018-03-31T22:42:38.465Z,99026.84
2018-03-31T22:45:05.378Z,99028.90
2018-03-31T22:47:32.274Z,99027.25
2018-03-31T22:49:59.193Z,99025.14
2018-03-31T22:52:26.110Z,99029.64
2018-03-31T22:54:53.193Z,99031.63
2018-03-31T22:57:20.097Z,99032.70
2018-03-31T22:59:47.026Z,99032.56
2018-03-31T23:02:13.958Z,99037.80
2018-03-31T23:04:40.880Z,99043.03
2018-03-31T23:07:07.834Z,99050.13
2018-03-31T23:09:34.764Z,99047.50
2018-03-31T23:12:01.661Z,99051.45
2018-03-31T23:14:28.592Z,99058.26
2018-03-31T23:16:55.509Z,99058.97
2018-03-31T23:19:22.570Z,99063.83
2018-03-31T23:21:49.494Z,99064.78
2018-03-31T23:24:16.421Z,99067.69
2018-03-31T23:26:43.346Z,99065.44
2018-03-31T23:29:10.254Z,99072.46
2018-03-31T23:31:37.365Z,99069.98
2018-03-31T23:34:04.286Z,99074.78
2018-03-31T23:36:31.198Z,99077.84
2018-03-31T23:38:58.118Z,99084.72
2018-03-31T23:41:25.038Z,99088.37
2018-03-31T23:43:52.151Z,99094.59
2018-03-31T23:46:19.052Z,99088.09
2018-03-31T23:48:45.957Z,99083.88
2018-03-31T23:51:12.877Z,99080.77
2018-03-31T23:53:39.777Z,99083.32
2018-03-31T23:56:07.054Z,99087.83
2018-03-31T23:58:33.964Z,99088.30
